sensor_id;sensor_type;location;lat;lon;timestamp;pressure;altitude;pressure_sealevel;temperature
9119;BMP180;4594;50.994;7.126;2023-11-19T00:00:34;100115.00;;;15.10
9119;BMP180;4594;50.994;7.126;2023-11-19T00:03:01;100096.00;;;15.10
9119;BMP180;4594;50.994;7.126;2023-11-19T00:05:27;100118.00;;;15.10
9119;BMP180;4594;50.994;7.126;2023-11-19T00:07:55;100100.00;;;15.10
9119;BMP180;4594;50.994;7.126;2023-11-19T00:10:21;100101.00;;;15.20
9119;BMP180;4594;50.994;7.126;2023-11-19T00:12:50;100096.00;;;15.20
9119;BMP180;4594;50.994;7.126;2023-11-19T00:15:17;100099.00;;;15.20
9119;BMP180;4594;50.994;7.126;2023-11-19T00:17:46;100081.00;;;15.20
9119;BMP180;4594;50.994;7.126;2023-11-19T00:20:20;100078.00;;;15.20
9119;BMP180;4594;50.994;7.126;2023-11-19T00:22:48;100073.00;;;15.20
9119;BMP180;4594;50.994;7.126;2023-11-19T00:25:21;100073.00;;;15.20
9119;BMP180;4594;50.994;7.126;2023-11-19T00:27:51;100058.00;;;15.30
9119;BMP180;4594;50.994;7.126;2023-11-19T00:30:19;100067.00;;;15.30
9119;BMP180;4594;50.994;7.126;2023-11-19T00:32:44;100060.00;;;15.30
9119;BMP180;4594;50.994;7.126;2023-11-19T00:35:11;100052.00;;;15.30
9119;BMP180;4594;50.994;7.126;2023-11-19T00:37:39;100015.00;;;15.30
9119;BMP180;4594;50.994;7.126;2023-11-19T00:40:06;100038.00;;;15.30
9119;BMP180;4594;50.994;7.126;2023-11-19T00:42:32;100042.00;;;15.30
9119;BMP180;4594;50.994;7.126;2023-11-19T00:44:58;100060.00;;;15.40
9119;BMP180;4594;50.994;7.126;2023-11-19T00:47:24;100056.00;;;15.40
9119;BMP180;4594;50.994;7.126;2023-11-19T00:49:50;100050.00;;;15.40
9119;BMP180;4594;50.994;7.126;2023-11-19T00:52:16;100067.00;;;15.50
9119;BMP180;4594;50.994;7.126;2023-11-19T00:54:43;100055.00;;;15.50
9119;BMP180;4594;50.994;7.126;2023-11-19T00:57:08;100048.00;;;15.50
9119;BMP180;4594;50.994;7.126;2023-11-19T00:59:34;100057.00;;;15.60
9119;BMP180;4594;50.994;7.126;2023-11-19T01:02:00;100060.00;;;15.60
9119;BMP180;4594;50.994;7.126;2023-11-19T01:04:34;100046.00;;;15.70
9119;BMP180;4594;50.994;7.126;2023-11-19T01:07:05;100056.00;;;15.70
9119;BMP180;4594;50.994;7.126;2023-11-19T01:09:32;100054.00;;;15.70
9119;BMP180;4594;50.994;7.126;2023-11-19T01:12:01;100038.00;;;15.80
9119;BMP180;4594;50.994;7.126;2023-11-19T01:14:28;100047.00;;;15.80
9119;BMP180;4594;50.994;7.126;2023-11-19T01:16:54;100039.00;;;15.80
9119;BMP180;4594;50.994;7.126;2023-11-19T01:19:22;100032.00;;;15.80
9119;BMP180;4594;50.994;7.126;2023-11-19T01:21:49;100036.00;;;15.90
9119;BMP180;4594;50.994;7.126;2023-11-19T01:24:15;100032.00;;;15.90
9119;BMP180;4594;50.994;7.126;2023-11-19T01:26:41;100048.00;;;15.90
9119;BMP180;4594;50.994;7.126;2023-11-19T01:29:14;100043.00;;;15.90
9119;BMP180;4594;50.994;7.126;2023-11-19T01:31:45;100035.00;;;15.90
9119;BMP180;4594;50.994;7.126;2023-11-19T01:34:12;100054.00;;;15.90
9119;BMP180;4594;50.994;7.126;2023-11-19T01:36:38;100046.00;;;15.90
9119;BMP180;4594;50.994;7.126;2023-11-19T01:39:04;100043.00;;;16.00
9119;BMP180;4594;50.994;7.126;2023-11-19T01:41:37;100061.00;;;16.00
9119;BMP180;4594;50.994;7.126;2023-11-19T01:44:06;100041.00;;;16.00
9119;BMP180;4594;50.994;7.126;2023-11-19T01:46:32;100068.00;;;16.00
9119;BMP180;4594;50.994;7.126;2023-11-19T01:48:59;100054.00;;;16.00
9119;BMP180;4594;50.994;7.126;2023-11-19T01:51:27;100031.00;;;16.10
9119;BMP180;4594;50.994;7.126;2023-11-19T01:53:53;100048.00;;;16.10
9119;BMP180;4594;50.994;7.126;2023-11-19T01:56:20;100046.00;;;16.10
9119;BMP180;4594;50.994;7.126;2023-11-19T01:58:49;100030.00;;;16.10
9119;BMP180;4594;50.994;7.126;2023-11-19T02:01:16;100027.00;;;16.10
9119;BMP180;4594;50.994;7.126;2023-11-19T02:03:42;100034.00;;;16.10
9119;BMP180;4594;50.994;7.126;2023-11-19T02:06:08;100038.00;;;16.10
9119;BMP180;4594;50.994;7.126;2023-11-19T02:08:36;100039.00;;;16.10
9119;BMP180;4594;50.994;7.126;2023-11-19T02:11:03;100058.00;;;16.20
9119;BMP180;4594;50.994;7.126;2023-11-19T02:13:28;100048.00;;;16.20
9119;BMP180;4594;50.994;7.126;2023-11-19T02:15:54;100031.00;;;16.20
9119;BMP180;4594;50.994;7.126;2023-11-19T02:18:27;100028.00;;;16.20
9119;BMP180;4594;50.994;7.126;2023-11-19T02:20:55;100030.00;;;16.20
9119;BMP180;4594;50.994;7.126;2023-11-19T02:23:22;100035.00;;;16.30
9119;BMP180;4594;50.994;7.126;2023-11-19T02:26:33;100026.00;;;16.30
9119;BMP180;4594;50.994;7.126;2023-11-19T02:29:04;100022.00;;;16.30
9119;BMP180;4594;50.994;7.126;2023-11-19T02:31:32;100022.00;;;16.30
9119;BMP180;4594;50.994;7.126;2023-11-19T02:33:59;100015.00;;;16.30
9119;BMP180;4594;50.994;7.126;2023-11-19T02:36:28;100010.00;;;16.30
9119;BMP180;4594;50.994;7.126;2023-11-19T02:38:53;100000.00;;;16.40
9119;BMP180;4594;50.994;7.126;2023-11-19T02:41:19;100016.00;;;16.40
9119;BMP180;4594;50.994;7.126;2023-11-19T02:43:45;100001.00;;;16.40
9119;BMP180;4594;50.994;7.126;2023-11-19T02:46:13;99999.00;;;16.40
9119;BMP180;4594;50.994;7.126;2023-11-19T02:48:38;99992.00;;;16.40
9119;BMP180;4594;50.994;7.126;2023-11-19T02:51:05;99996.00;;;16.40
9119;BMP180;4594;50.994;7.126;2023-11-19T02:53:35;99990.00;;;16.50
9119;BMP180;4594;50.994;7.126;2023-11-19T02:56:03;100001.00;;;16.50
9119;BMP180;4594;50.994;7.126;2023-11-19T02:58:37;99992.00;;;16.50
9119;BMP180;4594;50.994;7.126;2023-11-19T03:01:04;99995.00;;;16.50
9119;BMP180;4594;50.994;7.126;2023-11-19T03:03:39;99968.00;;;16.50
9119;BMP180;4594;50.994;7.126;2023-11-19T03:06:06;99979.00;;;16.60
9119;BMP180;4594;50.994;7.126;2023-11-19T03:08:35;99994.00;;;16.60
9119;BMP180;4594;50.994;7.126;2023-11-19T03:11:01;99981.00;;;16.60
9119;BMP180;4594;50.994;7.126;2023-11-19T03:13:27;100001.00;;;16.60
9119;BMP180;4594;50.994;7.126;2023-11-19T03:15:53;99993.00;;;16.60
9119;BMP180;4594;50.994;7.126;2023-11-19T03:18:20;99993.00;;;16.70
9119;BMP180;4594;50.994;7.126;2023-11-19T03:20:49;99991.00;;;16.70
9119;BMP180;4594;50.994;7.126;2023-11-19T03:23:15;99983.00;;;16.70
9119;BMP180;4594;50.994;7.126;2023-11-19T03:25:41;99971.00;;;16.70
9119;BMP180;4594;50.994;7.126;2023-11-19T03:28:06;99982.00;;;16.80
9119;BMP180;4594;50.994;7.126;2023-11-19T03:30:32;99969.00;;;16.80
9119;BMP180;4594;50.994;7.126;2023-11-19T03:32:58;99968.00;;;16.80
9119;BMP180;4594;50.994;7.126;2023-11-19T03:35:25;99978.00;;;16.80
9119;BMP180;4594;50.994;7.126;2023-11-19T03:37:51;99983.00;;;16.80
9119;BMP180;4594;50.994;7.126;2023-11-19T03:40:18;99977.00;;;16.90
9119;BMP180;4594;50.994;7.126;2023-11-19T03:42:45;99967.00;;;16.90
9119;BMP180;4594;50.994;7.126;2023-11-19T03:45:11;99980.00;;;16.90
9119;BMP180;4594;50.994;7.126;2023-11-19T03:47:38;99990.00;;;16.90
9119;BMP180;4594;50.994;7.126;2023-11-19T03:50:05;99983.00;;;17.00
9119;BMP180;4594;50.994;7.126;2023-11-19T03:52:31;99973.00;;;17.00
9119;BMP180;4594;50.994;7.126;2023-11-19T03:54:57;99977.00;;;17.00
9119;BMP180;4594;50.994;7.126;2023-11-19T03:57:23;99981.00;;;17.00
9119;BMP180;4594;50.994;7.126;2023-11-19T03:59:49;99977.00;;;17.00
9119;BMP180;4594;50.994;7.126;2023-11-19T04:02:16;99978.00;;;17.00
9119;BMP180;4594;50.994;7.126;2023-11-19T04:04:42;99981.00;;;17.10
9119;BMP180;4594;50.994;7.126;2023-11-19T04:07:08;99993.00;;;17.10
9119;BMP180;4594;50.994;7.126;2023-11-19T04:09:34;99987.00;;;17.10
9119;BMP180;4594;50.994;7.126;2023-11-19T04:12:00;99987.00;;;17.10
9119;BMP180;4594;50.994;7.126;2023-11-19T04:14:26;99989.00;;;17.10
9119;BMP180;4594;50.994;7.126;2023-11-19T04:16:52;100010.00;;;17.10
9119;BMP180;4594;50.994;7.126;2023-11-19T04:19:19;99999.00;;;17.10
9119;BMP180;4594;50.994;7.126;2023-11-19T04:21:45;99970.00;;;17.10
9119;BMP180;4594;50.994;7.126;2023-11-19T04:24:11;100000.00;;;17.10
9119;BMP180;4594;50.994;7.126;2023-11-19T04:26:46;99988.00;;;17.10
9119;BMP180;4594;50.994;7.126;2023-11-19T04:29:14;99973.00;;;17.10
9119;BMP180;4594;50.994;7.126;2023-11-19T04:31:41;99982.00;;;17.10
9119;BMP180;4594;50.994;7.126;2023-11-19T04:34:07;99978.00;;;17.10
9119;BMP180;4594;50.994;7.126;2023-11-19T04:36:33;99993.00;;;17.10
9119;BMP180;4594;50.994;7.126;2023-11-19T04:39:00;99987.00;;;17.10
9119;BMP180;4594;50.994;7.126;2023-11-19T04:41:26;99996.00;;;17.10
9119;BMP180;4594;50.994;7.126;2023-11-19T04:43:55;100007.00;;;17.10
9119;BMP180;4594;50.994;7.126;2023-11-19T04:46:21;100018.00;;;17.20
9119;BMP180;4594;50.994;7.126;2023-11-19T04:48:47;99989.00;;;17.20
9119;BMP180;4594;50.994;7.126;2023-11-19T04:51:13;100009.00;;;17.20
9119;BMP180;4594;50.994;7.126;2023-11-19T04:53:38;100006.00;;;17.20
9119;BMP180;4594;50.994;7.126;2023-11-19T04:56:11;100006.00;;;17.20
9119;BMP180;4594;50.994;7.126;2023-11-19T04:58:37;99986.00;;;17.20
9119;BMP180;4594;50.994;7.126;2023-11-19T05:01:06;99980.00;;;17.20
9119;BMP180;4594;50.994;7.126;2023-11-19T05:03:32;100007.00;;;17.20
9119;BMP180;4594;50.994;7.126;2023-11-19T05:06:00;100000.00;;;17.10
9119;BMP180;4594;50.994;7.126;2023-11-19T05:08:26;100011.00;;;17.20
9119;BMP180;4594;50.994;7.126;2023-11-19T05:10:51;100007.00;;;17.20
9119;BMP180;4594;50.994;7.126;2023-11-19T05:13:17;99992.00;;;17.20
9119;BMP180;4594;50.994;7.126;2023-11-19T05:15:43;100014.00;;;17.20
9119;BMP180;4594;50.994;7.126;2023-11-19T05:18:08;100008.00;;;17.20
9119;BMP180;4594;50.994;7.126;2023-11-19T05:20:34;100013.00;;;17.10
9119;BMP180;4594;50.994;7.126;2023-11-19T05:23:00;99993.00;;;17.10
9119;BMP180;4594;50.994;7.126;2023-11-19T05:25:27;100018.00;;;17.10
9119;BMP180;4594;50.994;7.126;2023-11-19T05:27:53;100015.00;;;17.10
9119;BMP180;4594;50.994;7.126;2023-11-19T05:30:19;100011.00;;;17.00
9119;BMP180;4594;50.994;7.126;2023-11-19T05:32:44;100025.00;;;17.00
9119;BMP180;4594;50.994;7.126;2023-11-19T05:35:11;100027.00;;;16.90
9119;BMP180;4594;50.994;7.126;2023-11-19T05:37:37;100024.00;;;16.80
9119;BMP180;4594;50.994;7.126;2023-11-19T05:40:05;100033.00;;;16.70
9119;BMP180;4594;50.994;7.126;2023-11-19T05:42:37;100026.00;;;16.70
9119;BMP180;4594;50.994;7.126;2023-11-19T05:45:03;100038.00;;;16.60
9119;BMP180;4594;50.994;7.126;2023-11-19T05:47:29;100019.00;;;16.50
9119;BMP180;4594;50.994;7.126;2023-11-19T05:49:54;100027.00;;;16.40
9119;BMP180;4594;50.994;7.126;2023-11-19T05:52:20;100029.00;;;16.40
9119;BMP180;4594;50.994;7.126;2023-11-19T05:54:47;100031.00;;;16.30
9119;BMP180;4594;50.994;7.126;2023-11-19T05:57:17;100055.00;;;16.30
9119;BMP180;4594;50.994;7.126;2023-11-19T05:59:48;100042.00;;;16.30
9119;BMP180;4594;50.994;7.126;2023-11-19T06:02:14;100046.00;;;16.20
9119;BMP180;4594;50.994;7.126;2023-11-19T06:04:39;100050.00;;;16.20
9119;BMP180;4594;50.994;7.126;2023-11-19T06:07:05;100051.00;;;16.20
9119;BMP180;4594;50.994;7.126;2023-11-19T06:09:31;100040.00;;;16.20
9119;BMP180;4594;50.994;7.126;2023-11-19T06:11:59;100031.00;;;16.10
9119;BMP180;4594;50.994;7.126;2023-11-19T06:14:27;100025.00;;;16.10
9119;BMP180;4594;50.994;7.126;2023-11-19T06:16:53;100041.00;;;16.10
9119;BMP180;4594;50.994;7.126;2023-11-19T06:19:18;100052.00;;;16.10
9119;BMP180;4594;50.994;7.126;2023-11-19T06:21:44;100054.00;;;16.10
9119;BMP180;4594;50.994;7.126;2023-11-19T06:24:10;100065.00;;;16.10
9119;BMP180;4594;50.994;7.126;2023-11-19T06:26:35;100055.00;;;16.20
9119;BMP180;4594;50.994;7.126;2023-11-19T06:29:01;100065.00;;;16.20
9119;BMP180;4594;50.994;7.126;2023-11-19T06:31:27;100075.00;;;16.20
9119;BMP180;4594;50.994;7.126;2023-11-19T06:33:53;100069.00;;;16.20
9119;BMP180;4594;50.994;7.126;2023-11-19T06:36:18;100054.00;;;16.20
9119;BMP180;4594;50.994;7.126;2023-11-19T06:38:44;100074.00;;;16.30
9119;BMP180;4594;50.994;7.126;2023-11-19T06:41:10;100070.00;;;16.30
9119;BMP180;4594;50.994;7.126;2023-11-19T06:43:37;100060.00;;;16.30
9119;BMP180;4594;50.994;7.126;2023-11-19T06:46:03;100077.00;;;16.30
9119;BMP180;4594;50.994;7.126;2023-11-19T06:48:34;100082.00;;;16.30
9119;BMP180;4594;50.994;7.126;2023-11-19T06:51:00;100080.00;;;16.30
9119;BMP180;4594;50.994;7.126;2023-11-19T06:53:26;100074.00;;;16.30
9119;BMP180;4594;50.994;7.126;2023-11-19T06:55:54;100075.00;;;16.30
9119;BMP180;4594;50.994;7.126;2023-11-19T06:58:19;100076.00;;;16.30
9119;BMP180;4594;50.994;7.126;2023-11-19T07:00:46;100069.00;;;16.30
9119;BMP180;4594;50.994;7.126;2023-11-19T07:03:14;100085.00;;;16.20
9119;BMP180;4594;50.994;7.126;2023-11-19T07:05:40;100073.00;;;16.20
9119;BMP180;4594;50.994;7.126;2023-11-19T07:08:08;100073.00;;;16.20
9119;BMP180;4594;50.994;7.126;2023-11-19T07:10:34;100067.00;;;16.20
9119;BMP180;4594;50.994;7.126;2023-11-19T07:13:00;100066.00;;;16.10
9119;BMP180;4594;50.994;7.126;2023-11-19T07:15:25;100073.00;;;16.10
9119;BMP180;4594;50.994;7.126;2023-11-19T07:17:51;100075.00;;;16.10
9119;BMP180;4594;50.994;7.126;2023-11-19T07:20:19;100061.00;;;16.00
9119;BMP180;4594;50.994;7.126;2023-11-19T07:22:45;100080.00;;;16.00
9119;BMP180;4594;50.994;7.126;2023-11-19T07:25:14;100075.00;;;16.00
9119;BMP180;4594;50.994;7.126;2023-11-19T07:27:40;100064.00;;;15.90
9119;BMP180;4594;50.994;7.126;2023-11-19T07:30:06;100064.00;;;15.90
9119;BMP180;4594;50.994;7.126;2023-11-19T07:32:35;100076.00;;;15.90
9119;BMP180;4594;50.994;7.126;2023-11-19T07:35:01;100058.00;;;15.80
9119;BMP180;4594;50.994;7.126;2023-11-19T07:37:26;100068.00;;;15.80
9119;BMP180;4594;50.994;7.126;2023-11-19T07:39:52;100060.00;;;15.80
9119;BMP180;4594;50.994;7.126;2023-11-19T07:42:18;100066.00;;;15.80
9119;BMP180;4594;50.994;7.126;2023-11-19T07:44:44;100067.00;;;15.80
9119;BMP180;4594;50.994;7.126;2023-11-19T07:47:09;100080.00;;;15.90
9119;BMP180;4594;50.994;7.126;2023-11-19T07:49:35;100059.00;;;15.90
9119;BMP180;4594;50.994;7.126;2023-11-19T07:52:01;100107.00;;;15.90
9119;BMP180;4594;50.994;7.126;2023-11-19T07:54:28;100086.00;;;15.90
9119;BMP180;4594;50.994;7.126;2023-11-19T07:56:54;100108.00;;;15.90
9119;BMP180;4594;50.994;7.126;2023-11-19T07:59:21;100111.00;;;15.90
9119;BMP180;4594;50.994;7.126;2023-11-19T08:01:47;100123.00;;;15.90
9119;BMP180;4594;50.994;7.126;2023-11-19T08:04:13;100115.00;;;16.00
9119;BMP180;4594;50.994;7.126;2023-11-19T08:06:39;100105.00;;;16.00
9119;BMP180;4594;50.994;7.126;2023-11-19T08:09:05;100094.00;;;15.90
9119;BMP180;4594;50.994;7.126;2023-11-19T08:11:33;100129.00;;;16.00
9119;BMP180;4594;50.994;7.126;2023-11-19T08:13:59;100121.00;;;15.90
9119;BMP180;4594;50.994;7.126;2023-11-19T08:16:24;100125.00;;;16.00
9119;BMP180;4594;50.994;7.126;2023-11-19T08:18:50;100110.00;;;16.00
9119;BMP180;4594;50.994;7.126;2023-11-19T08:21:16;100130.00;;;16.00
9119;BMP180;4594;50.994;7.126;2023-11-19T08:23:41;100153.00;;;16.00
9119;BMP180;4594;50.994;7.126;2023-11-19T08:26:07;100130.00;;;16.10
9119;BMP180;4594;50.994;7.126;2023-11-19T08:28:34;100155.00;;;16.10
9119;BMP180;4594;50.994;7.126;2023-11-19T08:31:00;100159.00;;;16.20
9119;BMP180;4594;50.994;7.126;2023-11-19T08:33:26;100148.00;;;16.40
9119;BMP180;4594;50.994;7.126;2023-11-19T08:35:52;100158.00;;;16.60
9119;BMP180;4594;50.994;7.126;2023-11-19T08:38:18;100137.00;;;16.80
9119;BMP180;4594;50.994;7.126;2023-11-19T08:40:44;100158.00;;;17.00
9119;BMP180;4594;50.994;7.126;2023-11-19T08:43:09;100164.00;;;17.20
9119;BMP180;4594;50.994;7.126;2023-11-19T08:45:35;100149.00;;;17.40
9119;BMP180;4594;50.994;7.126;2023-11-19T08:48:01;100134.00;;;17.50
9119;BMP180;4594;50.994;7.126;2023-11-19T08:50:27;100129.00;;;17.60
9119;BMP180;4594;50.994;7.126;2023-11-19T08:52:53;100137.00;;;17.80
9119;BMP180;4594;50.994;7.126;2023-11-19T08:55:18;100142.00;;;17.90
9119;BMP180;4594;50.994;7.126;2023-11-19T08:57:44;100131.00;;;18.10
9119;BMP180;4594;50.994;7.126;2023-11-19T09:00:11;100127.00;;;18.30
9119;BMP180;4594;50.994;7.126;2023-11-19T09:02:39;100131.00;;;18.50
9119;BMP180;4594;50.994;7.126;2023-11-19T09:05:06;100131.00;;;18.60
9119;BMP180;4594;50.994;7.126;2023-11-19T09:07:35;100153.00;;;18.80
9119;BMP180;4594;50.994;7.126;2023-11-19T09:10:01;100139.00;;;18.90
9119;BMP180;4594;50.994;7.126;2023-11-19T09:12:28;100146.00;;;18.70
9119;BMP180;4594;50.994;7.126;2023-11-19T09:14:54;100160.00;;;19.20
9119;BMP180;4594;50.994;7.126;2023-11-19T09:17:23;100119.00;;;19.30
9119;BMP180;4594;50.994;7.126;2023-11-19T09:19:49;100133.00;;;19.30
9119;BMP180;4594;50.994;7.126;2023-11-19T09:22:15;100101.00;;;19.40
9119;BMP180;4594;50.994;7.126;2023-11-19T09:24:40;100133.00;;;19.50
9119;BMP180;4594;50.994;7.126;2023-11-19T09:27:06;100152.00;;;19.60
9119;BMP180;4594;50.994;7.126;2023-11-19T09:29:32;100170.00;;;19.70
9119;BMP180;4594;50.994;7.126;2023-11-19T09:32:03;100164.00;;;19.70
9119;BMP180;4594;50.994;7.126;2023-11-19T09:34:29;100151.00;;;19.70
9119;BMP180;4594;50.994;7.126;2023-11-19T09:36:55;100147.00;;;19.70
9119;BMP180;4594;50.994;7.126;2023-11-19T09:39:21;100151.00;;;19.60
9119;BMP180;4594;50.994;7.126;2023-11-19T09:41:48;100129.00;;;19.60
9119;BMP180;4594;50.994;7.126;2023-11-19T09:44:14;100125.00;;;19.50
9119;BMP180;4594;50.994;7.126;2023-11-19T09:46:44;100159.00;;;19.50
9119;BMP180;4594;50.994;7.126;2023-11-19T09:49:11;100148.00;;;19.50
9119;BMP180;4594;50.994;7.126;2023-11-19T09:51:37;100136.00;;;19.50
9119;BMP180;4594;50.994;7.126;2023-11-19T09:54:04;100145.00;;;19.50
9119;BMP180;4594;50.994;7.126;2023-11-19T09:56:30;100141.00;;;19.40
9119;BMP180;4594;50.994;7.126;2023-11-19T09:58:56;100168.00;;;19.40
9119;BMP180;4594;50.994;7.126;2023-11-19T10:01:22;100163.00;;;19.30
9119;BMP180;4594;50.994;7.126;2023-11-19T10:03:49;100163.00;;;19.20
9119;BMP180;4594;50.994;7.126;2023-11-19T10:06:15;100145.00;;;19.20
9119;BMP180;4594;50.994;7.126;2023-11-19T10:08:43;100142.00;;;19.20
9119;BMP180;4594;50.994;7.126;2023-11-19T10:11:09;100150.00;;;19.10
9119;BMP180;4594;50.994;7.126;2023-11-19T10:13:39;100143.00;;;19.00
9119;BMP180;4594;50.994;7.126;2023-11-19T10:16:09;100150.00;;;19.00
9119;BMP180;4594;50.994;7.126;2023-11-19T10:18:34;100146.00;;;19.00
9119;BMP180;4594;50.994;7.126;2023-11-19T10:21:06;100132.00;;;19.00
9119;BMP180;4594;50.994;7.126;2023-11-19T10:23:57;100145.00;;;19.00
9119;BMP180;4594;50.994;7.126;2023-11-19T10:26:26;100133.00;;;19.00
9119;BMP180;4594;50.994;7.126;2023-11-19T10:28:52;100136.00;;;19.00
9119;BMP180;4594;50.994;7.126;2023-11-19T10:31:20;100154.00;;;19.00
9119;BMP180;4594;50.994;7.126;2023-11-19T10:33:51;100131.00;;;18.90
9119;BMP180;4594;50.994;7.126;2023-11-19T10:36:17;100125.00;;;18.90
9119;BMP180;4594;50.994;7.126;2023-11-19T10:38:56;100137.00;;;18.90
9119;BMP180;4594;50.994;7.126;2023-11-19T10:41:32;100129.00;;;18.80
9119;BMP180;4594;50.994;7.126;2023-11-19T10:43:59;100129.00;;;18.90
9119;BMP180;4594;50.994;7.126;2023-11-19T10:46:42;100121.00;;;18.90
9119;BMP180;4594;50.994;7.126;2023-11-19T10:49:09;100132.00;;;18.90
9119;BMP180;4594;50.994;7.126;2023-11-19T10:51:36;100140.00;;;19.00
9119;BMP180;4594;50.994;7.126;2023-11-19T10:54:06;100151.00;;;19.00
9119;BMP180;4594;50.994;7.126;2023-11-19T10:56:34;100116.00;;;18.90
9119;BMP180;4594;50.994;7.126;2023-11-19T10:59:01;100147.00;;;19.00
9119;BMP180;4594;50.994;7.126;2023-11-19T11:01:44;100142.00;;;19.00
9119;BMP180;4594;50.994;7.126;2023-11-19T11:04:14;100134.00;;;19.00
9119;BMP180;4594;50.994;7.126;2023-11-19T11:06:41;100135.00;;;18.90
9119;BMP180;4594;50.994;7.126;2023-11-19T11:09:10;100122.00;;;18.90
9119;BMP180;4594;50.994;7.126;2023-11-19T11:11:40;100129.00;;;18.90
9119;BMP180;4594;50.994;7.126;2023-11-19T11:14:12;100126.00;;;18.90
9119;BMP180;4594;50.994;7.126;2023-11-19T11:16:43;100133.00;;;18.90
9119;BMP180;4594;50.994;7.126;2023-11-19T11:19:10;100124.00;;;18.80
9119;BMP180;4594;50.994;7.126;2023-11-19T11:21:40;100114.00;;;18.80
9119;BMP180;4594;50.994;7.126;2023-11-19T11:27:21;100123.00;;;18.70
9119;BMP180;4594;50.994;7.126;2023-11-19T11:30:44;100131.00;;;18.60
9119;BMP180;4594;50.994;7.126;2023-11-19T11:33:32;100135.00;;;18.50
9119;BMP180;4594;50.994;7.126;2023-11-19T11:38:37;100128.00;;;18.70
9119;BMP180;4594;50.994;7.126;2023-11-19T11:41:22;100128.00;;;18.70
9119;BMP180;4594;50.994;7.126;2023-11-19T11:43:53;100120.00;;;18.70
9119;BMP180;4594;50.994;7.126;2023-11-19T11:49:04;100105.00;;;18.80
9119;BMP180;4594;50.994;7.126;2023-11-19T11:57:10;100082.00;;;18.70
9119;BMP180;4594;50.994;7.126;2023-11-19T12:02:09;100074.00;;;18.60
9119;BMP180;4594;50.994;7.126;2023-11-19T12:04:36;100076.00;;;18.60
9119;BMP180;4594;50.994;7.126;2023-11-19T12:07:07;100078.00;;;18.60
9119;BMP180;4594;50.994;7.126;2023-11-19T12:09:34;100083.00;;;18.70
9119;BMP180;4594;50.994;7.126;2023-11-19T12:15:09;100095.00;;;18.60
9119;BMP180;4594;50.994;7.126;2023-11-19T12:17:46;100086.00;;;18.60
9119;BMP180;4594;50.994;7.126;2023-11-19T12:20:16;100079.00;;;18.70
9119;BMP180;4594;50.994;7.126;2023-11-19T12:22:45;100088.00;;;18.80
9119;BMP180;4594;50.994;7.126;2023-11-19T12:25:13;100069.00;;;18.80
9119;BMP180;4594;50.994;7.126;2023-11-19T12:27:47;100069.00;;;18.80
9119;BMP180;4594;50.994;7.126;2023-11-19T12:30:26;100064.00;;;18.80
9119;BMP180;4594;50.994;7.126;2023-11-19T12:32:53;100068.00;;;18.90
9119;BMP180;4594;50.994;7.126;2023-11-19T12:35:19;100075.00;;;18.90
9119;BMP180;4594;50.994;7.126;2023-11-19T12:37:48;100070.00;;;18.90
9119;BMP180;4594;50.994;7.126;2023-11-19T12:40:25;100078.00;;;18.80
9119;BMP180;4594;50.994;7.126;2023-11-19T12:42:54;100057.00;;;18.80
9119;BMP180;4594;50.994;7.126;2023-11-19T12:45:21;100060.00;;;18.80
9119;BMP180;4594;50.994;7.126;2023-11-19T12:47:49;100054.00;;;18.80
9119;BMP180;4594;50.994;7.126;2023-11-19T12:50:17;100047.00;;;18.80
9119;BMP180;4594;50.994;7.126;2023-11-19T12:52:55;100047.00;;;18.80
9119;BMP180;4594;50.994;7.126;2023-11-19T12:55:29;100058.00;;;18.80
9119;BMP180;4594;50.994;7.126;2023-11-19T12:57:56;100054.00;;;18.80
9119;BMP180;4594;50.994;7.126;2023-11-19T13:00:26;100051.00;;;18.80
9119;BMP180;4594;50.994;7.126;2023-11-19T13:02:55;100065.00;;;18.80
9119;BMP180;4594;50.994;7.126;2023-11-19T13:05:33;100053.00;;;18.80
9119;BMP180;4594;50.994;7.126;2023-11-19T13:08:03;100066.00;;;18.80
9119;BMP180;4594;50.994;7.126;2023-11-19T13:10:51;100063.00;;;18.70
9119;BMP180;4594;50.994;7.126;2023-11-19T13:13:17;100060.00;;;18.60
9119;BMP180;4594;50.994;7.126;2023-11-19T13:15:43;100062.00;;;18.60
9119;BMP180;4594;50.994;7.126;2023-11-19T13:18:12;100067.00;;;18.60
9119;BMP180;4594;50.994;7.126;2023-11-19T13:20:39;100067.00;;;18.60
9119;BMP180;4594;50.994;7.126;2023-11-19T13:23:06;100055.00;;;18.50
9119;BMP180;4594;50.994;7.126;2023-11-19T13:25:35;100053.00;;;18.50
9119;BMP180;4594;50.994;7.126;2023-11-19T13:28:01;100056.00;;;18.50
9119;BMP180;4594;50.994;7.126;2023-11-19T13:30:27;100061.00;;;18.50
9119;BMP180;4594;50.994;7.126;2023-11-19T13:32:54;100063.00;;;18.50
9119;BMP180;4594;50.994;7.126;2023-11-19T13:35:21;100073.00;;;18.40
9119;BMP180;4594;50.994;7.126;2023-11-19T13:37:48;100080.00;;;18.40
9119;BMP180;4594;50.994;7.126;2023-11-19T13:40:14;100067.00;;;18.40
9119;BMP180;4594;50.994;7.126;2023-11-19T13:42:42;100066.00;;;18.30
9119;BMP180;4594;50.994;7.126;2023-11-19T13:45:12;100047.00;;;18.30
9119;BMP180;4594;50.994;7.126;2023-11-19T13:47:41;100055.00;;;18.30
9119;BMP180;4594;50.994;7.126;2023-11-19T13:50:09;100055.00;;;18.30
9119;BMP180;4594;50.994;7.126;2023-11-19T13:52:36;100031.00;;;18.30
9119;BMP180;4594;50.994;7.126;2023-11-19T13:55:09;100038.00;;;18.30
9119;BMP180;4594;50.994;7.126;2023-11-19T13:57:37;100025.00;;;18.30
9119;BMP180;4594;50.994;7.126;2023-11-19T14:00:04;100050.00;;;18.30
9119;BMP180;4594;50.994;7.126;2023-11-19T14:02:33;100028.00;;;18.30
9119;BMP180;4594;50.994;7.126;2023-11-19T14:04:58;100026.00;;;18.30
9119;BMP180;4594;50.994;7.126;2023-11-19T14:07:24;100029.00;;;18.30
9119;BMP180;4594;50.994;7.126;2023-11-19T14:09:50;100027.00;;;18.20
9119;BMP180;4594;50.994;7.126;2023-11-19T14:12:16;100031.00;;;18.20
9119;BMP180;4594;50.994;7.126;2023-11-19T14:14:43;100032.00;;;18.20
9119;BMP180;4594;50.994;7.126;2023-11-19T14:17:09;100026.00;;;18.20
9119;BMP180;4594;50.994;7.126;2023-11-19T14:19:36;100026.00;;;18.20
9119;BMP180;4594;50.994;7.126;2023-11-19T14:22:03;100013.00;;;18.20
9119;BMP180;4594;50.994;7.126;2023-11-19T14:24:29;100024.00;;;18.30
9119;BMP180;4594;50.994;7.126;2023-11-19T14:26:55;100032.00;;;18.30
9119;BMP180;4594;50.994;7.126;2023-11-19T14:29:24;100027.00;;;18.30
9119;BMP180;4594;50.994;7.126;2023-11-19T14:31:52;100029.00;;;18.20
9119;BMP180;4594;50.994;7.126;2023-11-19T14:34:20;100023.00;;;18.20
9119;BMP180;4594;50.994;7.126;2023-11-19T14:36:46;100015.00;;;18.20
9119;BMP180;4594;50.994;7.126;2023-11-19T14:39:11;100024.00;;;18.20
9119;BMP180;4594;50.994;7.126;2023-11-19T14:41:37;100000.00;;;18.20
9119;BMP180;4594;50.994;7.126;2023-11-19T14:44:03;99991.00;;;18.20
9119;BMP180;4594;50.994;7.126;2023-11-19T14:46:29;99996.00;;;18.10